Flight Track Log - Related Links

Times and Time Zones

All times are in EDT time to prevent confusion due to time zone crossing. See the PDT4456 flight status page for this flight to view local times or setup timezone preferences in your user account.

Time Position Orientation Groundspeed Altitude Reporting Facility
EDT Latitude Longitude Course Direction KTS MPH feet Rate Location/Type
Wed 05:41:38 PM 43.1078 -76.1261 144° Southeast 122 140 900  Level Boston Center
Wed 05:42:02 PM 43.1072 -76.1433 267° West 114 131 1,500 1,129 Climbing Boston Center
Wed 05:43:03 PM 43.0678 -76.1408 177° South 161 185 2,500 1,082 Climbing Boston Center
Wed 05:44:00 PM 43.1002 -75.9399 16° North  Level FlightAware Approximate
Wed 05:44:04 PM 43.0506 -76.0858 113° Southeast 173 199 3,700  Level Boston Center
Wed 05:45:00 PM 43.1167 -75.8711 90° East  Level FlightAware Approximate
Wed 05:45:03 PM 43.0400 -76.0311 105° East 179 206 4,700  Level Boston Center
Wed 05:46:00 PM 43.0785 -75.8119 144° Southeast  Level FlightAware Approximate
Wed 05:46:03 PM 43.0058 -75.9839 135° Southeast 173 199 5,800  Level Boston Center
Wed 05:47:03 PM 42.9786 -75.9225 121° Southeast 173 199 7,000 1,200 Climbing Boston Center
Wed 05:48:03 PM 42.9533 -75.8672 122° Southeast 182 209 8,200 1,150 Climbing Boston Center
Wed 05:49:03 PM 42.9175 -75.8028 127° Southeast 193 222 9,300 1,100 Climbing Boston Center
Wed 05:50:03 PM 42.8903 -75.7419 121° Southeast 198 228 10,400 950 Climbing Boston Center
Wed 05:51:03 PM 42.8525 -75.6747 127° Southeast 203 234 11,200 773 Climbing Boston Center
Wed 05:52:15 PM 42.8189 -75.6106 126° Southeast 208 239 12,100 818 Climbing Boston Center
Wed 05:53:15 PM 42.7753 -75.5264 125° Southeast 213 245 13,000 800 Climbing Boston Center
Wed 05:54:15 PM 42.7631 -75.4436 101° East 218 251 13,700 750 Climbing Boston Center
Wed 05:55:15 PM 42.7611 -75.3558 92° East 218 251 14,500 700 Climbing Boston Center
Wed 05:56:15 PM 42.7611 -75.2683 90° East 223 257 15,100 550 Climbing Boston Center
Wed 05:57:15 PM 42.7614 -75.1750 90° East 233 268 15,600 550 Climbing Boston Center
Wed 05:58:15 PM 42.7572 -75.0842 94° East 238 274 16,200 550 Climbing Boston Center
Wed 05:59:15 PM 42.7511 -74.9906 95° East 238 274 16,700 400 Climbing Boston Center
Wed 06:00:15 PM 42.7511 -74.8972 90° East 238 274 17,000 150 Climbing Boston Center
Wed 06:01:15 PM 42.7389 -74.7808 98° East 264 304 17,000  Level Boston Center
Wed 06:02:15 PM 42.7431 -74.6847 87° East 274 315 17,000  Level Boston Center
Wed 06:03:15 PM 42.7431 -74.5717 90° East 274 315 17,000  Level Boston Center
Wed 06:04:15 PM 42.7428 -74.4756 90° East 274 315 17,000  Level Boston Center
Wed 06:05:15 PM 42.7447 -74.3597 89° East 274 315 17,000  Level Boston Center
Wed 06:06:15 PM 42.7464 -74.2664 89° East 274 315 17,000  Level Boston Center
Wed 06:07:15 PM 42.7461 -74.1478 90° East 274 315 17,000  Level Boston Center
Wed 06:08:15 PM 42.7475 -74.0572 89° East 274 315 17,000  Level Boston Center
Wed 06:09:15 PM 42.7467 -73.9497 91° East 269 310 17,000  Level Boston Center
Wed 06:10:15 PM 42.7481 -73.8425 89° East 274 315 17,000  Level Boston Center
Wed 06:11:15 PM 42.7494 -73.7350 89° East 274 315 17,000  Level Boston Center
Wed 06:12:15 PM 42.7611 -73.6250 82° East 279 321 17,000  Level Boston Center
Wed 06:13:15 PM 42.7706 -73.5092 84° East 279 321 17,000  Level Boston Center
Wed 06:14:15 PM 42.7733 -73.4131 88° East 279 321 17,000 50 Level Boston Center
Wed 06:15:15 PM 42.7681 -73.2942 93° East 279 321 17,100 50 Climbing Boston Center
Wed 06:16:15 PM 42.7481 -73.2006 106° East 279 321 17,100 -50 Level Boston Center
Wed 06:17:15 PM 42.7278 -73.0789 103° East 284 327 17,000  Descending Boston Center
Wed 06:18:15 PM 42.7117 -72.9856 103° East 284 327 17,100 -200 Climbing Boston Center
Wed 06:19:15 PM 42.6956 -72.8781 101° East 284 327 16,600 -750 Descending Boston Center
Wed 06:20:15 PM 42.6689 -72.7619 107° East 297 342 15,600 -1,000 Descending Boston Center
Wed 06:21:15 PM 42.6483 -72.6433 103° East 309 356 14,600 -1,000 Descending Boston Center
Wed 06:22:15 PM 42.6297 -72.5275 102° East 314 361 13,600 -1,000 Descending Boston Center
Wed 06:23:15 PM 42.6089 -72.4092 103° East 319 367 12,600 -1,000 Descending Boston Center
Wed 06:24:15 PM 42.5878 -72.3019 105° East 319 367 11,600 -1,000 Descending Boston Center
Wed 06:25:15 PM 42.5628 -72.1781 105° East 314 361 10,600 -1,050 Descending Boston Center
Wed 06:26:15 PM 42.5436 -72.0708 104° East 297 342 9,500 -744 Descending Boston Center
Wed 06:27:16 PM 42.5328 -71.9667 98° East 290 334 9,100 -200 Descending Boston Center
Wed 06:28:15 PM 42.5281 -71.8711 94° East 266 306 9,100  Level Boston Center
Wed 06:29:27 PM 42.5172 -71.7753 99° East 255 293 9,100  Level Boston Center
Wed 06:30:27 PM 42.5019 -71.6656 101° East 249 287 9,100  Level Boston Center
Wed 06:31:27 PM 42.4931 -71.5814 98° East 249 287 9,100 -290 Level Boston Center
Wed 06:32:31 PM 42.4833 -71.4667 97° East 250 288 8,500 -1,258 Descending KA90
Wed 06:33:31 PM 42.4667 -71.3667 103° East 270 311 6,500 -1,736 Descending KA90
Wed 06:34:32 PM 42.4500 -71.2833 105° East 237 273 5,000 -744 Descending KA90
Wed 06:35:32 PM 42.4500 -71.1833 90° East 237 273 5,000  Level KA90
Wed 06:36:32 PM 42.4167 -71.1333 132° Southeast 249 287 5,000 -300 Level KA90
Wed 06:37:32 PM 42.3500 -71.1667 200° South 242 278 4,400 -522 Descending KA90
Wed 06:38:27 PM 42.3019 -71.2106 214° Southwest 224 258 4,000 -626 Descending Boston Center
Wed 06:39:27 PM 42.2439 -71.2342 197° South 224 258 3,200 -500 Descending Boston Center
Wed 06:40:27 PM 42.2222 -71.1672 114° Southeast 168 193 3,000 -350 Descending Boston Center
Wed 06:41:27 PM 42.2531 -71.1106 54° Northeast 148 170 2,500 -800 Descending Boston Center
Wed 06:42:27 PM 42.2878 -71.0622 46° Northeast 170 196 1,400 -1,100 Descending Boston Center

Login

Don't have an account? Register now (free) for customized features, flight alerts, and more!